This is the latest recevied weather packets stored in our database for station/object K5MGY. If no packets are shown the sender has not sent any weather packets the latest 1 day(s).
| Time | Temp. | Humidity | Pressure | Rain* | Wind** | Luminosity | Snow |
|---|---|---|---|---|---|---|---|
| 1777992569 | 24.44° C | 77% | 1029.3 hPa | 0 mm | 0.89 m/s, 179° | 115 W/m² | - |
| 1777992267 | 24.44° C | 76% | 1029.4 hPa | 0 mm | 0.45 m/s, 206° | 125 W/m² | - |
| 1777991964 | 24.44° C | 77% | 1029.6 hPa | 0 mm | 0.45 m/s, 317° | 90 W/m² | - |
| 1777991662 | 23.89° C | 77% | 1029.7 hPa | 0 mm | 1.34 m/s, 239° | 137 W/m² | - |
| 1777991359 | 23.89° C | 78% | 1029.8 hPa | 0 mm | 2.24 m/s, 161° | 94 W/m² | - |
| 1777991056 | 23.89° C | 78% | 1029.4 hPa | 0 mm | 0.89 m/s, 172° | 100 W/m² | - |
| 1777990753 | 23.89° C | 78% | 1029.3 hPa | 0 mm | 1.79 m/s, 167° | 102 W/m² | - |
| 1777990450 | 23.89° C | 79% | 1029.3 hPa | 0 mm | 1.34 m/s, 186° | 109 W/m² | - |
| 1777990147 | 23.89° C | 79% | 1029.2 hPa | 0 mm | 1.79 m/s, 253° | 118 W/m² | - |
| 1777989844 | 23.33° C | 80% | 1029.2 hPa | 0 mm | 2.24 m/s, 184° | 96 W/m² | - |
| 1777989541 | 23.33° C | 80% | 1029 hPa | 0 mm | 1.79 m/s, 159° | 89 W/m² | - |
| 1777989237 | 23.33° C | 81% | 1028.9 hPa | 0 mm | 1.34 m/s, 222° | 87 W/m² | - |
| 1777988933 | 22.78° C | 81% | 1029.3 hPa | 0 mm | 0.89 m/s, 190° | 76 W/m² | - |
| 1777988630 | 22.78° C | 81% | 1029.1 hPa | 0 mm | 0.89 m/s, 153° | 73 W/m² | - |
| 1777988327 | 22.78° C | 82% | 1028.9 hPa | 0 mm | 0.89 m/s, 122° | 79 W/m² | - |
| 1777988024 | 22.78° C | 82% | 1029 hPa | 0 mm | 0.89 m/s, 198° | 96 W/m² | - |
| 1777987719 | 22.22° C | 83% | 1029 hPa | 0 mm | 0.45 m/s, 186° | 80 W/m² | - |
| 1777987417 | 22.22° C | 84% | 1028.9 hPa | 0 mm | 2.24 m/s, 152° | 94 W/m² | - |
| 1777987113 | 22.22° C | 84% | 1029 hPa | 0 mm | 1.34 m/s, 165° | 59 W/m² | - |
| 1777986811 | 22.22° C | 84% | 1029.2 hPa | 0 mm | 0.89 m/s, 144° | 42 W/m² | - |
| 1777986509 | 21.67° C | 85% | 1028.9 hPa | 0 mm | 0.45 m/s, 214° | 38 W/m² | - |
| 1777986206 | 21.67° C | 85% | 1029.1 hPa | 0 mm | 1.79 m/s, 148° | 43 W/m² | - |
| 1777985903 | 21.67° C | 86% | 1029 hPa | 0 mm | 1.34 m/s, 209° | 42 W/m² | - |
| 1777985601 | 21.67° C | 86% | 1028.9 hPa | 0 mm | 2.68 m/s, 135° | 41 W/m² | - |
| 1777985297 | 21.11° C | 86% | 1028.7 hPa | 0 mm | 1.34 m/s, 189° | 33 W/m² | - |
* Rain latest hour (hover to see other rain measurements)
** Current wind speed in m/s (hover to see current wind gust speed)